createdAt,value
2014-07-22T00:00:15.979Z,25.4
2014-07-22T00:00:34.308Z,25.4
2014-07-22T00:00:52.636Z,25.4
2014-07-22T00:01:10.967Z,25.5
2014-07-22T00:01:29.295Z,25.4
2014-07-22T00:01:47.623Z,25.5
2014-07-22T00:02:05.951Z,25.4
2014-07-22T00:02:24.280Z,25.5
2014-07-22T00:02:42.608Z,25.5
2014-07-22T00:03:00.937Z,25.5
2014-07-22T00:03:19.267Z,25.5
2014-07-22T00:03:37.595Z,25.6
2014-07-22T00:03:55.923Z,25.6
2014-07-22T00:04:14.253Z,25.6
2014-07-22T00:04:32.581Z,25.6
2014-07-22T00:04:50.909Z,25.7
2014-07-22T00:05:09.237Z,25.7
2014-07-22T00:05:27.568Z,25.7
2014-07-22T00:05:45.896Z,25.7
2014-07-22T00:06:04.224Z,25.7
2014-07-22T00:06:22.554Z,25.8
2014-07-22T00:06:40.882Z,25.8
2014-07-22T00:06:59.210Z,25.8
2014-07-22T00:07:17.538Z,25.8
2014-07-22T00:07:35.869Z,25.8
2014-07-22T00:07:54.198Z,25.8
2014-07-22T00:08:12.526Z,25.8
2014-07-22T00:08:30.855Z,25.8
2014-07-22T00:08:49.183Z,25.8
2014-07-22T00:09:07.511Z,25.8
2014-07-22T00:09:25.839Z,25.8
2014-07-22T00:09:44.169Z,25.7
2014-07-22T00:10:02.497Z,25.7
2014-07-22T00:10:20.826Z,25.6
2014-07-22T00:10:39.140Z,25.6
2014-07-22T00:10:57.484Z,25.6
2014-07-22T00:11:15.812Z,25.6
2014-07-22T00:11:34.142Z,25.6
2014-07-22T00:11:52.470Z,25.6
2014-07-22T00:12:10.798Z,25.6
2014-07-22T00:12:29.126Z,25.5
2014-07-22T00:12:47.457Z,25.6
2014-07-22T00:13:05.785Z,25.6
2014-07-22T00:13:24.113Z,25.7
2014-07-22T00:13:42.443Z,25.7
2014-07-22T00:14:00.771Z,25.6
2014-07-22T00:14:19.099Z,25.6
2014-07-22T00:14:37.429Z,25.6
2014-07-22T00:14:55.757Z,25.7
2014-07-22T00:15:14.086Z,25.7
2014-07-22T00:15:32.398Z,25.7
2014-07-22T00:15:50.745Z,25.7
2014-07-22T00:16:09.057Z,25.7
2014-07-22T00:16:27.401Z,25.7
2014-07-22T00:16:45.730Z,25.8
2014-07-22T00:17:04.058Z,25.7
2014-07-22T00:17:22.386Z,25.7
2014-07-22T00:17:40.717Z,25.8
2014-07-22T00:17:59.045Z,25.8
2014-07-22T00:18:17.373Z,25.7
2014-07-22T00:18:35.701Z,25.7
2014-07-22T00:18:54.031Z,25.7
2014-07-22T00:19:12.359Z,25.6
2014-07-22T00:19:30.672Z,25.7
2014-07-22T00:19:49.017Z,25.6
2014-07-22T00:20:07.330Z,25.6
2014-07-22T00:20:25.674Z,25.6
2014-07-22T00:20:44.004Z,25.5
2014-07-22T00:21:02.332Z,25.4
2014-07-22T00:21:20.660Z,25.4
2014-07-22T00:21:38.990Z,25.4
2014-07-22T00:21:57.318Z,25.4
2014-07-22T00:22:15.646Z,25.4
2014-07-22T00:22:33.975Z,25.4
2014-07-22T00:22:52.305Z,25.4
2014-07-22T00:23:10.633Z,25.3
2014-07-22T00:23:28.961Z,25.3
2014-07-22T00:23:47.307Z,25.3
2014-07-22T00:24:05.604Z,25.3
2014-07-22T00:24:23.947Z,25.2
2014-07-22T00:24:42.277Z,25.3
2014-07-22T00:25:00.590Z,25.3
2014-07-22T00:25:18.918Z,25.3
2014-07-22T00:25:37.246Z,25.3
2014-07-22T00:25:55.576Z,25.2
2014-07-22T00:26:13.904Z,25.2
2014-07-22T00:26:32.233Z,25.2
2014-07-22T00:26:50.563Z,25.3
2014-07-22T00:27:08.891Z,25.2
2014-07-22T00:27:27.203Z,25.2
2014-07-22T00:27:45.532Z,25.1
2014-07-22T00:28:03.861Z,25.1
2014-07-22T00:28:22.189Z,25.2
2014-07-22T00:28:40.517Z,25.2
2014-07-22T00:28:58.848Z,25.2
2014-07-22T00:29:17.176Z,25.2
2014-07-22T00:29:35.504Z,25.3
2014-07-22T00:29:53.834Z,25.3
2014-07-22T00:30:12.162Z,25.3
2014-07-22T00:30:30.491Z,25.3
2014-07-22T00:30:48.820Z,25.4
2014-07-22T00:31:07.132Z,25.3
2014-07-22T00:31:25.460Z,25.4
2014-07-22T00:31:43.804Z,25.3
2014-07-22T00:32:02.135Z,25.4
2014-07-22T00:32:20.463Z,25.4
2014-07-22T00:32:38.776Z,25.4
2014-07-22T00:32:57.122Z,25.4
2014-07-22T00:33:15.450Z,25.4
2014-07-22T00:33:33.762Z,25.4
2014-07-22T00:33:52.090Z,25.4
2014-07-22T00:34:10.419Z,25.4
2014-07-22T00:34:28.748Z,25.4
2014-07-22T00:34:47.076Z,25.4
2014-07-22T00:35:05.407Z,25.4
2014-07-22T00:35:23.735Z,25.5
2014-07-22T00:35:42.063Z,25.5
2014-07-22T00:36:00.391Z,25.4
2014-07-22T00:36:18.721Z,25.5
2014-07-22T00:36:37.049Z,25.4
2014-07-22T00:36:55.378Z,25.4
2014-07-22T00:37:13.911Z,25.5
2014-07-22T00:37:32.036Z,25.4
2014-07-22T00:37:50.364Z,25.4
2014-07-22T00:38:08.692Z,25.4
2014-07-22T00:38:27.022Z,25.3
2014-07-22T00:38:45.366Z,25.3
2014-07-22T00:39:03.694Z,25.2
2014-07-22T00:39:22.024Z,25.2
2014-07-22T00:39:40.352Z,25.1
2014-07-22T00:39:58.680Z,25.2
2014-07-22T00:40:17.011Z,25.2
2014-07-22T00:40:35.339Z,25.2
2014-07-22T00:40:53.667Z,25.2
2014-07-22T00:41:11.997Z,25.2
2014-07-22T00:41:30.325Z,25.2
2014-07-22T00:41:48.653Z,25.3
2014-07-22T00:42:06.981Z,25.3
2014-07-22T00:42:25.311Z,25.3
2014-07-22T00:42:43.640Z,25.2
2014-07-22T00:43:01.968Z,25.2
2014-07-22T00:43:20.298Z,25.1
2014-07-22T00:43:38.626Z,25.1
2014-07-22T00:43:56.954Z,25.2
2014-07-22T00:44:15.283Z,25.2
2014-07-22T00:44:33.611Z,25.2
2014-07-22T00:44:51.924Z,25.3
2014-07-22T00:45:10.254Z,25.3
2014-07-22T00:45:28.582Z,25.3
2014-07-22T00:45:46.910Z,25.3
2014-07-22T00:46:05.238Z,25.3
2014-07-22T00:46:23.568Z,25.3
2014-07-22T00:46:41.897Z,25.3
2014-07-22T00:47:00.225Z,25.3
2014-07-22T00:47:18.555Z,25.3
2014-07-22T00:47:36.883Z,25.3
2014-07-22T00:47:55.211Z,25.3
2014-07-22T00:48:13.541Z,25.3
2014-07-22T00:48:31.869Z,25.3
2014-07-22T00:48:50.197Z,25.3
2014-07-22T00:49:08.526Z,25.3
2014-07-22T00:49:27.059Z,25.4
2014-07-22T00:49:45.184Z,25.4
2014-07-22T00:50:03.512Z,25.4
2014-07-22T00:50:21.842Z,25.3
2014-07-22T00:50:40.170Z,25.4
2014-07-22T00:50:58.498Z,25.4
2014-07-22T00:51:16.828Z,25.4
2014-07-22T00:51:35.157Z,25.4
2014-07-22T00:51:53.469Z,25.3
2014-07-22T00:52:11.814Z,25.3
2014-07-22T00:52:30.142Z,25.3
2014-07-22T00:52:48.470Z,25.3
2014-07-22T00:53:06.783Z,25.3
2014-07-22T00:53:25.114Z,25.3
2014-07-22T00:53:43.442Z,25.3
2014-07-22T00:54:01.770Z,25.3
2014-07-22T00:54:20.116Z,25.3
2014-07-22T00:54:38.444Z,25.2
2014-07-22T00:54:56.772Z,25.2
2014-07-22T00:55:15.101Z,25.2
2014-07-22T00:55:33.429Z,25.2
2014-07-22T00:55:51.757Z,25.2
2014-07-22T00:56:10.085Z,25.2
2014-07-22T00:56:28.416Z,25.2
2014-07-22T00:56:46.744Z,25.2
2014-07-22T00:57:05.072Z,25.3
2014-07-22T00:57:23.402Z,25.2
2014-07-22T00:57:41.730Z,25.2
2014-07-22T00:58:00.058Z,25.3
2014-07-22T00:58:18.388Z,25.3
2014-07-22T00:58:36.716Z,25.3
2014-07-22T00:58:55.045Z,25.3
2014-07-22T00:59:13.388Z,25.3
2014-07-22T00:59:31.718Z,25.4
2014-07-22T00:59:50.047Z,25.4
2014-07-22T01:00:08.375Z,25.4
2014-07-22T01:00:26.705Z,25.4
2014-07-22T01:00:45.033Z,25.4
2014-07-22T01:01:03.361Z,25.4
2014-07-22T01:01:21.691Z,25.4
2014-07-22T01:01:40.019Z,25.4
2014-07-22T01:01:58.332Z,25.4
2014-07-22T01:02:16.662Z,25.4
2014-07-22T01:02:35.006Z,25.3
2014-07-22T01:02:53.318Z,25.3
2014-07-22T01:03:11.646Z,25.3
2014-07-22T01:03:29.976Z,25.3
2014-07-22T01:03:48.305Z,25.2
2014-07-22T01:04:06.633Z,25.2
2014-07-22T01:04:24.963Z,25.1
2014-07-22T01:04:43.291Z,25
2014-07-22T01:05:01.619Z,25
2014-07-22T01:05:19.934Z,25.1
2014-07-22T01:05:38.262Z,25.1
2014-07-22T01:05:56.590Z,25
2014-07-22T01:06:14.934Z,25
2014-07-22T01:06:33.248Z,25
2014-07-22T01:06:51.576Z,24.9
2014-07-22T01:07:09.904Z,24.9
2014-07-22T01:07:28.233Z,24.7
2014-07-22T01:07:46.577Z,24.7
2014-07-22T01:08:04.905Z,24.7
2014-07-22T01:08:23.220Z,24.7
2014-07-22T01:08:41.564Z,24.8
2014-07-22T01:08:59.892Z,24.8
2014-07-22T01:09:18.220Z,24.8
2014-07-22T01:09:36.551Z,24.9
2014-07-22T01:09:54.879Z,24.9
2014-07-22T01:10:13.207Z,24.9
2014-07-22T01:10:31.522Z,24.9
2014-07-22T01:10:49.865Z,24.9
2014-07-22T01:11:08.194Z,25
2014-07-22T01:11:26.508Z,25
2014-07-22T01:11:44.836Z,25
2014-07-22T01:12:03.164Z,25
2014-07-22T01:12:21.492Z,25
2014-07-22T01:12:39.806Z,25
2014-07-22T01:12:58.134Z,24.9
2014-07-22T01:13:16.462Z,24.9
2014-07-22T01:13:34.808Z,24.8
2014-07-22T01:13:53.120Z,24.8
2014-07-22T01:14:11.449Z,24.8
2014-07-22T01:14:29.777Z,24.8
2014-07-22T01:14:48.108Z,24.8
2014-07-22T01:15:06.436Z,24.8
2014-07-22T01:15:24.764Z,24.9
2014-07-22T01:15:43.094Z,24.8
2014-07-22T01:16:01.422Z,24.8
2014-07-22T01:16:19.750Z,24.8
2014-07-22T01:16:38.079Z,24.8
2014-07-22T01:16:56.409Z,24.8
2014-07-22T01:17:14.737Z,24.9
2014-07-22T01:17:33.065Z,24.9
2014-07-22T01:17:51.395Z,24.9
2014-07-22T01:18:09.708Z,24.9
2014-07-22T01:18:28.051Z,24.9
2014-07-22T01:18:46.379Z,24.9
2014-07-22T01:19:04.709Z,24.9
2014-07-22T01:19:23.037Z,24.9
2014-07-22T01:19:41.365Z,24.9
2014-07-22T01:19:59.696Z,24.9
2014-07-22T01:20:18.024Z,24.9
2014-07-22T01:20:36.352Z,24.9
2014-07-22T01:20:54.680Z,25
2014-07-22T01:21:12.995Z,24.9
2014-07-22T01:21:31.339Z,24.9
2014-07-22T01:21:49.667Z,25
2014-07-22T01:22:07.980Z,25
2014-07-22T01:22:26.308Z,25
2014-07-22T01:22:44.636Z,25
2014-07-22T01:23:02.967Z,25
2014-07-22T01:23:21.295Z,24.9
2014-07-22T01:23:39.623Z,25
2014-07-22T01:23:57.970Z,24.9
2014-07-22T01:24:16.282Z,25
2014-07-22T01:24:34.595Z,24.8
2014-07-22T01:24:52.938Z,24.8
2014-07-22T01:25:11.268Z,24.8
2014-07-22T01:25:29.597Z,24.8
2014-07-22T01:25:47.925Z,24.8
2014-07-22T01:26:06.255Z,24.9
2014-07-22T01:26:24.583Z,24.9
2014-07-22T01:26:42.911Z,24.9
2014-07-22T01:27:01.240Z,24.9
2014-07-22T01:27:19.553Z,24.8
2014-07-22T01:27:37.896Z,24.7
2014-07-22T01:27:56.209Z,24.7
2014-07-22T01:28:14.742Z,24.7
2014-07-22T01:28:32.867Z,24.7
2014-07-22T01:28:51.195Z,24.8
2014-07-22T01:29:09.525Z,24.7
2014-07-22T01:29:27.854Z,24.8
2014-07-22T01:29:46.182Z,24.8
2014-07-22T01:30:04.512Z,24.8
2014-07-22T01:30:22.840Z,24.8
2014-07-22T01:30:41.168Z,24.8
2014-07-22T01:30:59.496Z,24.7
2014-07-22T01:31:17.826Z,24.8
2014-07-22T01:31:36.154Z,24.6
2014-07-22T01:31:54.467Z,24.7
2014-07-22T01:32:12.798Z,24.7
2014-07-22T01:32:31.126Z,24.7
2014-07-22T01:32:49.454Z,24.6
2014-07-22T01:33:07.783Z,24.6
2014-07-22T01:33:26.112Z,24.6
2014-07-22T01:33:44.440Z,24.6
2014-07-22T01:34:02.768Z,24.7
2014-07-22T01:34:21.098Z,24.7
2014-07-22T01:34:39.426Z,24.7
2014-07-22T01:34:57.754Z,24.7
2014-07-22T01:35:16.084Z,24.5
2014-07-22T01:35:34.397Z,24.5
2014-07-22T01:35:52.741Z,24.6
2014-07-22T01:36:11.055Z,24.6
2014-07-22T01:36:29.383Z,24.5
2014-07-22T01:36:47.727Z,24.6
2014-07-22T01:37:06.055Z,24.5
2014-07-22T01:37:24.385Z,24.5
2014-07-22T01:37:42.698Z,24.5
2014-07-22T01:38:01.026Z,24.6
2014-07-22T01:38:19.356Z,24.6
2014-07-22T01:38:37.684Z,24.5
2014-07-22T01:38:56.012Z,24.5
2014-07-22T01:39:14.341Z,24.5
2014-07-22T01:39:32.669Z,24.5
2014-07-22T01:39:50.998Z,24.5
2014-07-22T01:40:09.328Z,24.5
2014-07-22T01:40:27.656Z,24.6
2014-07-22T01:40:45.984Z,24.6
2014-07-22T01:41:04.312Z,24.6
2014-07-22T01:41:22.642Z,24.5
2014-07-22T01:41:40.970Z,24.5
2014-07-22T01:41:59.298Z,24.5
2014-07-22T01:42:17.629Z,24.5
2014-07-22T01:42:35.957Z,24.6
2014-07-22T01:42:54.285Z,24.5
2014-07-22T01:43:12.616Z,24.6
2014-07-22T01:43:30.944Z,24.6
2014-07-22T01:43:49.272Z,24.6
2014-07-22T01:44:07.585Z,24.6
2014-07-22T01:44:25.914Z,24.6
2014-07-22T01:44:44.242Z,24.6
2014-07-22T01:45:02.570Z,24.6
2014-07-22T01:45:20.901Z,24.6
2014-07-22T01:45:39.229Z,24.6
2014-07-22T01:45:57.557Z,24.5
2014-07-22T01:46:15.886Z,24.5
2014-07-22T01:46:34.216Z,24.5
2014-07-22T01:46:52.544Z,24.5
2014-07-22T01:47:10.872Z,24.5
2014-07-22T01:47:29.202Z,24.5
2014-07-22T01:47:47.530Z,24.5
2014-07-22T01:48:05.858Z,24.5
2014-07-22T01:48:24.186Z,24.5
2014-07-22T01:48:42.517Z,24.5
2014-07-22T01:49:00.845Z,24.4
2014-07-22T01:49:19.173Z,24.4
2014-07-22T01:49:37.486Z,24.4
2014-07-22T01:49:55.830Z,24.3
2014-07-22T01:50:14.158Z,24.3
2014-07-22T01:50:32.473Z,24.4
2014-07-22T01:50:50.801Z,24.3
2014-07-22T01:51:09.129Z,24.3
2014-07-22T01:51:27.457Z,24.3
2014-07-22T01:51:45.788Z,24.3
2014-07-22T01:52:04.116Z,24.2
2014-07-22T01:52:22.444Z,24.2
2014-07-22T01:52:40.775Z,24.3
2014-07-22T01:52:59.306Z,24.3
2014-07-22T01:53:17.431Z,24.2
2014-07-22T01:53:35.760Z,24.2
2014-07-22T01:53:54.088Z,24.1
2014-07-22T01:54:12.416Z,24.1
2014-07-22T01:54:30.746Z,24
2014-07-22T01:54:49.074Z,24.1
2014-07-22T01:55:07.403Z,24.1
2014-07-22T01:55:25.715Z,24.2
2014-07-22T01:55:44.045Z,24.2
2014-07-22T01:56:02.576Z,24.2
2014-07-22T01:56:20.701Z,24.3
2014-07-22T01:56:39.032Z,24.2
2014-07-22T01:56:57.360Z,24.2
2014-07-22T01:57:15.688Z,24.3
2014-07-22T01:57:34.018Z,24.3
2014-07-22T01:57:52.346Z,24.3
2014-07-22T01:58:10.674Z,24.3
2014-07-22T01:58:29.002Z,24.4
2014-07-22T01:58:47.317Z,24.4
2014-07-22T01:59:05.645Z,24.4
2014-07-22T01:59:23.989Z,24.3
2014-07-22T01:59:42.319Z,24.3
2014-07-22T02:00:00.631Z,24.4
2014-07-22T02:00:18.959Z,24.4
2014-07-22T02:00:37.305Z,24.4
2014-07-22T02:00:55.633Z,24.4
2014-07-22T02:01:14.149Z,24.5
2014-07-22T02:01:32.274Z,24.4
2014-07-22T02:01:50.620Z,24.4
2014-07-22T02:02:08.948Z,24.5
2014-07-22T02:02:27.260Z,24.3
2014-07-22T02:02:45.590Z,24.3
2014-07-22T02:03:03.919Z,24.2
2014-07-22T02:03:22.247Z,24.2
2014-07-22T02:03:40.577Z,24.2
2014-07-22T02:03:58.905Z,24.2
2014-07-22T02:04:17.233Z,24.2
2014-07-22T02:04:35.561Z,24.3
2014-07-22T02:04:54.094Z,24.3
2014-07-22T02:05:12.219Z,24.4
2014-07-22T02:05:30.548Z,24.4
2014-07-22T02:05:48.878Z,24.4
2014-07-22T02:06:07.206Z,24.3
2014-07-22T02:06:25.534Z,24.3
2014-07-22T02:06:43.848Z,24.3
2014-07-22T02:07:02.192Z,24.3
2014-07-22T02:07:20.520Z,24.2
2014-07-22T02:07:38.848Z,24.2
2014-07-22T02:07:57.179Z,24.2
2014-07-22T02:08:15.491Z,24.2
2014-07-22T02:08:33.819Z,24.2
2014-07-22T02:08:52.149Z,24.2
2014-07-22T02:09:10.477Z,24.2
2014-07-22T02:09:28.806Z,24.2
2014-07-22T02:09:47.136Z,24.3
2014-07-22T02:10:05.464Z,24.3
2014-07-22T02:10:23.792Z,24.3
2014-07-22T02:10:42.120Z,24.3
2014-07-22T02:11:00.435Z,24.3
2014-07-22T02:11:18.778Z,24.2
2014-07-22T02:11:37.091Z,24.2
2014-07-22T02:11:55.421Z,24
2014-07-22T02:12:13.749Z,23.9
2014-07-22T02:12:32.077Z,24
2014-07-22T02:12:50.405Z,24
2014-07-22T02:13:08.720Z,24
2014-07-22T02:13:27.048Z,23.9
2014-07-22T02:13:45.376Z,23.9
2014-07-22T02:14:03.706Z,23.9
2014-07-22T02:14:22.034Z,23.9
2014-07-22T02:14:40.362Z,23.9
2014-07-22T02:14:58.675Z,23.9
2014-07-22T02:15:17.004Z,24
2014-07-22T02:15:35.348Z,24
2014-07-22T02:15:53.660Z,24
2014-07-22T02:16:11.991Z,24
2014-07-22T02:16:30.320Z,24
2014-07-22T02:16:48.648Z,23.9
2014-07-22T02:17:06.960Z,24
2014-07-22T02:17:25.289Z,23.9
2014-07-22T02:17:43.617Z,23.9
2014-07-22T02:18:01.946Z,24
2014-07-22T02:18:20.276Z,24
2014-07-22T02:18:38.604Z,24.1
2014-07-22T02:18:56.932Z,24
2014-07-22T02:19:15.246Z,24
2014-07-22T02:19:33.575Z,24.1
2014-07-22T02:19:51.903Z,24.1
2014-07-22T02:20:10.233Z,24.2
2014-07-22T02:20:28.561Z,24.1
2014-07-22T02:20:46.889Z,24
2014-07-22T02:21:05.217Z,24.1
2014-07-22T02:21:23.547Z,24.1
2014-07-22T02:21:41.875Z,24.1
2014-07-22T02:22:00.204Z,24.1
2014-07-22T02:22:18.737Z,24.1
2014-07-22T02:22:36.862Z,24.2
2014-07-22T02:22:55.190Z,24.2
2014-07-22T02:23:13.521Z,24.2
2014-07-22T02:23:31.849Z,24.2
2014-07-22T02:23:50.177Z,24.3
2014-07-22T02:24:08.505Z,24.2
2014-07-22T02:24:26.836Z,24.2
2014-07-22T02:24:45.164Z,24.2
2014-07-22T02:25:03.492Z,24.2
2014-07-22T02:25:21.821Z,24.1
2014-07-22T02:25:40.149Z,24.1
2014-07-22T02:25:58.477Z,24.1
2014-07-22T02:26:16.805Z,24
2014-07-22T02:26:35.135Z,24.1
2014-07-22T02:26:53.464Z,24.1
2014-07-22T02:27:11.792Z,24.1
2014-07-22T02:27:30.325Z,24.1
2014-07-22T02:27:48.450Z,24.1
2014-07-22T02:28:06.778Z,24.1
2014-07-22T02:28:25.109Z,24.1
2014-07-22T02:28:43.437Z,24.1
2014-07-22T02:29:01.765Z,24.1
2014-07-22T02:29:20.094Z,24
2014-07-22T02:29:38.408Z,24
2014-07-22T02:29:56.752Z,24.1
2014-07-22T02:30:15.080Z,24.1
2014-07-22T02:30:33.409Z,24.1
2014-07-22T02:30:51.737Z,24.1
2014-07-22T02:31:10.081Z,24.2
2014-07-22T02:31:28.412Z,24.1
2014-07-22T02:31:46.740Z,24.1
2014-07-22T02:32:05.068Z,24.2
2014-07-22T02:32:23.396Z,24.1
2014-07-22T02:32:41.710Z,24.1
2014-07-22T02:33:00.054Z,24.1
2014-07-22T02:33:18.382Z,24.1
2014-07-22T02:33:36.712Z,24.1
2014-07-22T02:33:55.040Z,24.2
2014-07-22T02:34:13.368Z,24.2
2014-07-22T02:34:31.698Z,24.2
2014-07-22T02:34:50.026Z,24.1
2014-07-22T02:35:08.355Z,24.1
2014-07-22T02:35:26.683Z,24.2
2014-07-22T02:35:45.013Z,24.2
2014-07-22T02:36:03.341Z,24.2
2014-07-22T02:36:21.669Z,24.2
2014-07-22T02:36:39.999Z,24.2
2014-07-22T02:36:58.327Z,24.2
2014-07-22T02:37:16.671Z,24.2
2014-07-22T02:37:35.001Z,24.2
2014-07-22T02:37:53.314Z,24.2
2014-07-22T02:38:11.657Z,24.2
2014-07-22T02:38:29.986Z,24.2
2014-07-22T02:38:48.316Z,24.2
2014-07-22T02:39:06.644Z,24.2
2014-07-22T02:39:24.972Z,24.2
2014-07-22T02:39:43.301Z,24.1
2014-07-22T02:40:01.629Z,24.2
2014-07-22T02:40:19.957Z,24.2
2014-07-22T02:40:38.287Z,24.1
2014-07-22T02:40:56.616Z,24.1
2014-07-22T02:41:14.944Z,24.1
2014-07-22T02:41:33.272Z,24.1
2014-07-22T02:41:51.603Z,24.1
2014-07-22T02:42:09.947Z,24.1
2014-07-22T02:42:28.275Z,24.1
2014-07-22T02:42:46.605Z,24.1
2014-07-22T02:43:04.933Z,24.1
2014-07-22T02:43:23.261Z,24.2
2014-07-22T02:43:41.606Z,24.2
2014-07-22T02:43:59.934Z,24.1
2014-07-22T02:44:18.262Z,24.2
2014-07-22T02:44:36.590Z,24.2
2014-07-22T02:44:54.921Z,24.2
2014-07-22T02:45:13.265Z,24.2
2014-07-22T02:45:31.796Z,24.2
2014-07-22T02:45:49.922Z,24.2
2014-07-22T02:46:08.251Z,24.2
2014-07-22T02:46:26.594Z,24.2
2014-07-22T02:46:44.924Z,24.2
2014-07-22T02:47:03.253Z,24.2
2014-07-22T02:47:21.596Z,24.2
2014-07-22T02:47:39.924Z,24.2
2014-07-22T02:47:58.256Z,24.2
2014-07-22T02:48:16.584Z,24.1
2014-07-22T02:48:34.912Z,24.1
2014-07-22T02:48:53.258Z,24.1
2014-07-22T02:49:11.586Z,24.2
2014-07-22T02:49:30.117Z,24.1
2014-07-22T02:49:48.462Z,24.2
2014-07-22T02:50:06.587Z,24.2
2014-07-22T02:50:24.915Z,24.2
2014-07-22T02:50:43.259Z,24.2
2014-07-22T02:51:01.589Z,24.2
2014-07-22T02:51:19.917Z,24.2
2014-07-22T02:51:38.245Z,24.2
2014-07-22T02:51:56.575Z,24.1
2014-07-22T02:52:14.903Z,24.2
2014-07-22T02:52:33.231Z,24.2
2014-07-22T02:52:51.575Z,24.2
2014-07-22T02:53:09.905Z,24.2
2014-07-22T02:53:28.233Z,24.2
2014-07-22T02:53:46.577Z,24.2
2014-07-22T02:54:04.907Z,24.2
2014-07-22T02:54:23.235Z,24.2
2014-07-22T02:54:41.563Z,24.2
2014-07-22T02:54:59.892Z,24.2
2014-07-22T02:55:18.223Z,24.2
2014-07-22T02:55:36.551Z,24.2
2014-07-22T02:55:54.895Z,24.2
2014-07-22T02:56:13.225Z,24.2
2014-07-22T02:56:31.553Z,24.2
2014-07-22T02:56:49.881Z,24.2
2014-07-22T02:57:08.210Z,24.2
2014-07-22T02:57:26.554Z,24.2
2014-07-22T02:57:44.882Z,24.2
2014-07-22T02:58:03.210Z,24.2
2014-07-22T02:58:21.540Z,24.2
2014-07-22T02:58:39.868Z,24.2
2014-07-22T02:58:58.212Z,24.1
2014-07-22T02:59:16.542Z,24.1
2014-07-22T02:59:34.870Z,24.1
2014-07-22T02:59:53.214Z,24.1
2014-07-22T03:00:11.544Z,24
2014-07-22T03:00:29.872Z,24
2014-07-22T03:00:48.200Z,24
2014-07-22T03:01:06.531Z,24
2014-07-22T03:01:24.859Z,24.1
2014-07-22T03:01:43.187Z,24.1
2014-07-22T03:02:01.515Z,24.1
2014-07-22T03:02:19.861Z,24
2014-07-22T03:02:38.189Z,24.1
2014-07-22T03:02:56.517Z,24.1
2014-07-22T03:03:14.847Z,24.1
2014-07-22T03:03:33.191Z,24.1
2014-07-22T03:03:51.519Z,24.1
2014-07-22T03:04:09.849Z,24.1
2014-07-22T03:04:28.177Z,24.1
2014-07-22T03:04:46.505Z,24.1
2014-07-22T03:05:04.849Z,24.1
2014-07-22T03:05:23.179Z,24.2
2014-07-22T03:05:41.507Z,24.1
2014-07-22T03:05:59.835Z,24.1
2014-07-22T03:06:18.181Z,24.1
2014-07-22T03:06:36.509Z,24.1
2014-07-22T03:06:54.837Z,24.1
2014-07-22T03:07:13.371Z,24.1
2014-07-22T03:07:31.496Z,24.2
2014-07-22T03:07:49.824Z,24.1
2014-07-22T03:08:08.152Z,24.1
2014-07-22T03:08:26.481Z,24.1
2014-07-22T03:08:44.825Z,24.1
2014-07-22T03:09:03.153Z,24.1
2014-07-22T03:09:21.483Z,24.1
2014-07-22T03:09:39.811Z,24
2014-07-22T03:09:58.139Z,24
2014-07-22T03:10:16.485Z,24
2014-07-22T03:10:34.813Z,24
2014-07-22T03:10:53.141Z,24
2014-07-22T03:11:11.472Z,23.9
2014-07-22T03:11:29.801Z,23.9
2014-07-22T03:11:48.129Z,24
2014-07-22T03:12:06.457Z,24
2014-07-22T03:12:24.787Z,24
2014-07-22T03:12:43.115Z,23.9
2014-07-22T03:13:01.459Z,23.9
2014-07-22T03:13:19.789Z,23.9
2014-07-22T03:13:38.117Z,23.9
2014-07-22T03:13:56.445Z,23.9
2014-07-22T03:14:14.775Z,23.9
2014-07-22T03:14:33.103Z,23.9
2014-07-22T03:14:51.432Z,23.9
2014-07-22T03:15:09.776Z,23.9
2014-07-22T03:15:28.104Z,23.9
2014-07-22T03:15:46.433Z,24
2014-07-22T03:16:04.761Z,24
2014-07-22T03:16:23.091Z,24
2014-07-22T03:16:41.419Z,24
2014-07-22T03:16:59.747Z,24
2014-07-22T03:17:18.280Z,24
2014-07-22T03:17:36.421Z,24
2014-07-22T03:17:54.749Z,24
2014-07-22T03:18:13.079Z,24
2014-07-22T03:18:31.407Z,24
2014-07-22T03:18:49.735Z,24
2014-07-22T03:19:08.064Z,24
2014-07-22T03:19:26.394Z,24
2014-07-22T03:19:44.737Z,23.9
2014-07-22T03:20:03.066Z,23.9
2014-07-22T03:20:21.396Z,24
2014-07-22T03:20:39.724Z,23.9
2014-07-22T03:20:58.068Z,23.9
2014-07-22T03:21:16.398Z,23.9
2014-07-22T03:21:34.726Z,24
2014-07-22T03:21:53.054Z,24
2014-07-22T03:22:11.382Z,23.9
2014-07-22T03:22:29.728Z,23.9
2014-07-22T03:22:48.056Z,24
2014-07-22T03:23:06.384Z,23.9
2014-07-22T03:23:24.917Z,23.9
2014-07-22T03:23:43.058Z,24
2014-07-22T03:24:01.386Z,24
2014-07-22T03:24:19.716Z,24
2014-07-22T03:24:38.044Z,24
2014-07-22T03:24:56.372Z,24
2014-07-22T03:25:14.701Z,24
2014-07-22T03:25:33.030Z,24
2014-07-22T03:25:51.358Z,24
2014-07-22T03:26:09.686Z,24
2014-07-22T03:26:28.017Z,23.9
2014-07-22T03:26:46.345Z,23.9
2014-07-22T03:27:04.673Z,23.9
2014-07-22T03:27:23.002Z,23.9
2014-07-22T03:27:41.331Z,23.8
2014-07-22T03:27:59.659Z,23.8
2014-07-22T03:28:17.987Z,23.7
2014-07-22T03:28:36.317Z,23.8
2014-07-22T03:28:54.661Z,23.8
2014-07-22T03:29:12.989Z,23.8
2014-07-22T03:29:31.335Z,23.8
2014-07-22T03:29:49.663Z,23.8
2014-07-22T03:30:07.991Z,23.8
2014-07-22T03:30:26.319Z,23.8
2014-07-22T03:30:44.650Z,23.9
2014-07-22T03:31:02.994Z,23.9
2014-07-22T03:31:21.322Z,23.9
2014-07-22T03:31:39.652Z,23.9
2014-07-22T03:31:57.980Z,23.9
2014-07-22T03:32:16.308Z,23.9
2014-07-22T03:32:34.652Z,23.9
2014-07-22T03:32:52.981Z,23.9
2014-07-22T03:33:11.309Z,23.9
2014-07-22T03:33:29.653Z,24
2014-07-22T03:33:47.984Z,24
2014-07-22T03:34:06.312Z,24
2014-07-22T03:34:24.640Z,24
2014-07-22T03:34:42.971Z,24
2014-07-22T03:35:01.299Z,24
2014-07-22T03:35:19.627Z,24
2014-07-22T03:35:37.955Z,24
2014-07-22T03:35:56.284Z,24
2014-07-22T03:36:14.612Z,24
2014-07-22T03:36:32.940Z,24.1
2014-07-22T03:36:51.286Z,24.1
2014-07-22T03:37:09.614Z,24.1
2014-07-22T03:37:27.942Z,24.1
2014-07-22T03:37:46.272Z,24.1
2014-07-22T03:38:04.601Z,24
2014-07-22T03:38:22.944Z,24
2014-07-22T03:38:41.274Z,24
2014-07-22T03:38:59.603Z,24
2014-07-22T03:39:17.931Z,24
2014-07-22T03:39:36.274Z,24
2014-07-22T03:39:54.589Z,24
2014-07-22T03:40:12.917Z,24
2014-07-22T03:40:31.245Z,24
2014-07-22T03:40:49.575Z,23.9
2014-07-22T03:41:07.919Z,23.9
2014-07-22T03:41:26.247Z,24
2014-07-22T03:41:44.575Z,23.9
2014-07-22T03:42:02.905Z,23.8
2014-07-22T03:42:21.234Z,23.8
2014-07-22T03:42:39.562Z,23.9
2014-07-22T03:42:57.907Z,23.8
2014-07-22T03:43:16.236Z,23.8
2014-07-22T03:43:34.564Z,23.8
2014-07-22T03:43:52.892Z,23.7
2014-07-22T03:44:11.222Z,23.7
2014-07-22T03:44:29.566Z,23.5
2014-07-22T03:44:47.894Z,23.5
2014-07-22T03:45:06.225Z,23.5
2014-07-22T03:45:24.553Z,23.5
2014-07-22T03:45:42.881Z,23.5
2014-07-22T03:46:01.428Z,23.5
2014-07-22T03:46:19.554Z,23.6
2014-07-22T03:46:37.882Z,23.6
2014-07-22T03:46:56.210Z,23.7
2014-07-22T03:47:14.541Z,23.7
2014-07-22T03:47:32.870Z,23.7
2014-07-22T03:47:51.213Z,23.7
2014-07-22T03:48:09.543Z,23.6
2014-07-22T03:48:27.887Z,23.6
2014-07-22T03:48:46.215Z,23.6
2014-07-22T03:49:04.543Z,23.6
2014-07-22T03:49:22.873Z,23.4
2014-07-22T03:49:41.216Z,23.5
2014-07-22T03:49:59.544Z,23.5
2014-07-22T03:50:17.876Z,23.4
2014-07-22T03:50:36.204Z,23.3
2014-07-22T03:50:54.532Z,23.3
2014-07-22T03:51:12.862Z,23.3
2014-07-22T03:51:31.190Z,23.3
2014-07-22T03:51:49.518Z,23.4
2014-07-22T03:52:07.862Z,23.4
2014-07-22T03:52:26.191Z,23.4
2014-07-22T03:52:44.519Z,23.5
2014-07-22T03:53:02.847Z,23.3
2014-07-22T03:53:21.177Z,23.4
2014-07-22T03:53:39.521Z,23.4
2014-07-22T03:53:57.849Z,23.5
2014-07-22T03:54:16.179Z,23.5
2014-07-22T03:54:34.523Z,23.6
2014-07-22T03:54:53.023Z,23.6
2014-07-22T03:55:11.352Z,23.6
2014-07-22T03:55:29.680Z,23.5
2014-07-22T03:55:48.009Z,23.6
2014-07-22T03:56:06.352Z,23.6
2014-07-22T03:56:24.683Z,23.5
2014-07-22T03:56:43.012Z,23.5
2014-07-22T03:57:01.340Z,23.5
2014-07-22T03:57:19.670Z,23.5
2014-07-22T03:57:38.014Z,23.5
2014-07-22T03:57:56.342Z,23.5
2014-07-22T03:58:14.670Z,23.6
2014-07-22T03:58:33.016Z,23.5
2014-07-22T03:58:51.344Z,23.5
2014-07-22T03:59:09.672Z,23.6
2014-07-22T03:59:28.019Z,23.6
2014-07-22T03:59:46.347Z,23.6
2014-07-22T04:00:04.675Z,23.6
2014-07-22T04:00:23.003Z,23.6
2014-07-22T04:00:41.348Z,23.6
2014-07-22T04:00:59.676Z,23.7
2014-07-22T04:01:18.004Z,23.7
2014-07-22T04:01:36.335Z,23.6
2014-07-22T04:01:54.663Z,23.6
2014-07-22T04:02:12.991Z,23.7
2014-07-22T04:02:31.335Z,23.7
2014-07-22T04:02:49.649Z,23.7
2014-07-22T04:03:07.992Z,23.7
2014-07-22T04:03:26.320Z,23.7
2014-07-22T04:03:44.651Z,23.6
2014-07-22T04:04:02.979Z,23.7
2014-07-22T04:04:21.322Z,23.7
2014-07-22T04:04:39.653Z,23.7
2014-07-22T04:04:57.981Z,23.7
2014-07-22T04:05:16.309Z,23.7
2014-07-22T04:05:34.637Z,23.7
2014-07-22T04:05:52.967Z,23.7